PPI weather

Port Pirie Airport
South Australia, Australia

Public forecast

Using degrees Celsius for public forecast. Weather courtesy of forecast.io.

METAR (pilot weather report)

Closest report is Whyalla Airport, 26.5 nm (49.0 km) WNW. Retrieved 2019/03/27 00:00 UTC (2 minutes ago):

YWHA 270000Z AUTO 03005KT 360V100 9999 // NCD 21/11 Q1022

TAF (pilot weather forecast)

Forecast is more than 12 hours old.

Closest forecast is Whyalla Airport, 26.5 nm (49.0 km) WNW. Retrieved 2018/11/15 18:03 UTC (4 months ago):

TAF YWHA 151701Z 1518/1608 VRB05KT CAVOK FM152300 18012KT CAVOK FM160200 18018KT CAVOK